Time;durP1;ratioP1;P1;durP2;ratioP2;P2;SDS_P1;SDS_P2;PMS_P1;PMS_P2;Temp;Humidity;BMP_temperature;BMP_pressure;BME280_temperature;BME280_humidity;BME280_pressure;Samples;Min_cycle;Max_cycle;Signal;HPM_P1;HPM_P2
2022/09/29 00:00:26;;;;;;;9.60;8.40;;;;;;;11.13;79.95;97325.80;90801;1274;22630;-73
2022/09/29 00:02:48;;;;;;;9.10;7.90;;;;;;;11.14;80.07;97326.59;90724;1271;97957;-74
2022/09/29 00:04:49;;;;;;;11.40;7.90;;;;;;;11.15;80.11;97331.30;90710;1273;23135;-73
2022/09/29 00:06:51;;;;;;;14.70;8.60;;;;;;;11.15;80.09;97336.41;90715;1271;22578;-75
2022/09/29 00:08:53;;;;;;;15.60;8.50;;;;;;;11.15;80.16;97335.70;90670;1273;97776;-74
2022/09/29 00:10:55;;;;;;;17.70;8.50;;;;;;;11.14;80.14;97336.47;90785;1273;22916;-74
2022/09/29 00:12:57;;;;;;;17.40;9.50;;;;;;;11.14;80.14;97336.15;90803;1274;22613;-74
2022/09/29 00:14:59;;;;;;;9.60;8.50;;;;;;;11.14;80.16;97338.61;90661;1273;98018;-72
2022/09/29 00:17:00;;;;;;;15.10;8.70;;;;;;;11.13;80.22;97340.23;90849;1272;22588;-73
2022/09/29 00:19:03;;;;;;;13.50;9.20;;;;;;;11.13;80.16;97343.95;90827;1274;22953;-71
2022/09/29 00:21:08;;;;;;;11.90;10.00;;;;;;;11.11;80.27;97346.19;90748;1274;97762;-74
2022/09/29 00:23:10;;;;;;;14.70;9.20;;;;;;;11.10;80.23;97351.90;90846;1277;22560;-73
2022/09/29 00:25:11;;;;;;;19.20;9.10;;;;;;;11.09;80.19;97347.59;90783;1272;22576;-73
2022/09/29 00:27:14;;;;;;;13.80;9.20;;;;;;;11.08;80.30;97344.64;90747;1274;99155;-73
2022/09/29 00:29:16;;;;;;;11.90;9.40;;;;;;;11.07;80.33;97347.64;90833;1273;22728;-74
2022/09/29 00:31:18;;;;;;;16.90;9.90;;;;;;;11.07;80.33;97346.59;90799;1273;22710;-72
2022/09/29 00:33:20;;;;;;;13.70;10.30;;;;;;;11.07;80.43;97349.09;90828;1274;99746;-74
2022/09/29 00:35:22;;;;;;;25.70;11.00;;;;;;;11.07;80.40;97352.46;90922;1273;22591;-73
2022/09/29 00:37:23;;;;;;;16.40;10.30;;;;;;;11.06;80.45;97356.90;90908;1271;23163;-73
2022/09/29 00:39:25;;;;;;;15.90;11.30;;;;;;;11.04;80.34;97361.06;90814;1274;97984;-73
2022/09/29 00:41:37;;;;;;;12.80;10.80;;;;;;;11.04;80.51;97361.08;90931;1274;22565;-74
2022/09/29 00:43:44;;;;;;;18.80;11.70;;;;;;;11.03;80.39;97366.23;90851;1273;22567;-73
2022/09/29 00:45:47;;;;;;;19.90;11.10;;;;;;;11.02;80.49;97364.40;90801;1271;98167;-72
2022/09/29 00:47:57;;;;;;;16.00;11.10;;;;;;;11.01;80.57;97369.73;90867;1273;22855;-73
2022/09/29 00:50:03;;;;;;;21.70;11.80;;;;;;;10.99;80.50;97372.01;90889;1274;22817;-74
2022/09/29 00:52:25;;;;;;;19.80;11.50;;;;;;;10.99;80.51;97375.20;90751;1271;98182;-73
2022/09/29 00:54:36;;;;;;;14.60;11.90;;;;;;;10.98;80.69;97374.04;90891;1271;22729;-72
2022/09/29 00:56:40;;;;;;;15.40;12.20;;;;;;;10.98;80.55;97375.44;90779;1274;98706;-73
2022/09/29 00:58:46;;;;;;;17.80;13.20;;;;;;;10.97;80.68;97378.66;90952;1273;22844;-73
2022/09/29 01:00:48;;;;;;;18.50;13.10;;;;;;;10.95;80.60;97380.63;90960;1271;22695;-74
2022/09/29 01:03:15;;;;;;;22.90;14.80;;;;;;;10.93;80.59;97383.17;90851;1273;98557;-73
2022/09/29 01:05:33;;;;;;;20.50;14.80;;;;;;;10.82;80.64;97378.38;90919;1271;22681;-73
2022/09/29 01:07:35;;;;;;;24.80;15.50;;;;;;;10.89;80.66;97388.04;90886;1271;22610;-73
2022/09/29 01:09:45;;;;;;;30.60;15.60;;;;;;;10.89;80.77;97384.91;90724;1274;98081;-73
2022/09/29 01:11:47;;;;;;;24.10;16.90;;;;;;;10.88;80.85;97387.77;90968;1271;22536;-73
2022/09/29 01:13:52;;;;;;;22.60;17.20;;;;;;;10.87;80.73;97386.99;90932;1273;22618;-73
2022/09/29 01:15:54;;;;;;;25.90;16.70;;;;;;;10.86;80.76;97387.73;90852;1272;98025;-73
2022/09/29 01:17:55;;;;;;;21.60;16.00;;;;;;;10.84;80.68;97400.41;90906;1274;22617;-74
2022/09/29 01:20:17;;;;;;;23.30;15.20;;;;;;;10.82;80.69;97404.42;90946;1273;23138;-74
2022/09/29 01:22:39;;;;;;;26.00;17.20;;;;;;;10.79;80.83;97408.66;90859;1271;22620;-73
2022/09/29 01:25:10;;;;;;;24.00;16.00;;;;;;;10.78;80.75;97410.86;90961;1271;22567;-74
2022/09/29 01:27:32;;;;;;;22.30;16.30;;;;;;;10.77;80.84;97409.50;90715;1276;98115;-74
2022/09/29 01:29:58;;;;;;;21.60;17.40;;;;;;;10.76;80.92;97412.58;90838;1277;22500;-74
2022/09/29 01:32:19;;;;;;;20.30;16.40;;;;;;;10.76;80.81;97415.08;90818;1277;22754;-74
2022/09/29 01:34:48;;;;;;;28.00;16.90;;;;;;;10.76;80.97;97414.34;90818;1277;22569;-73
2022/09/29 01:37:48;;;;;;;21.40;15.90;;;;;;;10.76;80.96;97414.39;90582;1279;22586;-74
2022/09/29 01:40:34;;;;;;;26.80;16.30;;;;;;;10.73;81.01;97409.78;89968;1284;97906;-74
2022/09/29 01:42:51;;;;;;;26.40;16.50;;;;;;;10.72;80.99;97408.44;90069;1284;22583;-74
2022/09/29 01:45:13;;;;;;;28.00;15.80;;;;;;;10.72;81.07;97410.04;89597;1287;98217;-74
2022/09/29 01:47:26;;;;;;;22.80;15.90;;;;;;;10.72;81.20;97407.55;89766;1286;22585;-74
2022/09/29 01:49:32;;;;;;;25.70;16.40;;;;;;;10.71;81.04;97413.14;89868;1285;22610;-74
2022/09/29 01:51:58;;;;;;;24.60;16.50;;;;;;;10.70;81.13;97420.39;89717;1287;97936;-74
2022/09/29 01:54:05;;;;;;;21.10;16.40;;;;;;;10.70;81.09;97421.83;89939;1285;22612;-75
2022/09/29 01:57:11;;;;;;;21.70;15.90;;;;;;;10.70;81.01;97418.47;89602;1268;98356;-74
2022/09/29 02:03:25;;;;;;;26.20;16.00;;;;;;;10.69;81.12;97419.42;88557;1279;99619;-76
2022/09/29 02:09:33;;;;;;;20.20;16.20;;;;;;;10.66;81.27;97417.38;88520;1279;98146;-76
2022/09/29 02:18:41;;;;;;;23.50;16.10;;;;;;;10.58;81.28;97424.11;87952;1287;22584;-77
2022/09/29 02:21:37;;;;;;;21.40;16.10;;;;;;;10.56;81.37;97431.77;87417;1294;98197;-76
2022/09/29 02:24:19;;;;;;;23.60;17.20;;;;;;;10.55;81.29;97435.93;87475;1291;22608;-76
2022/09/29 02:27:04;;;;;;;32.20;17.50;;;;;;;10.52;81.49;97435.39;87616;1291;99949;-76
2022/09/29 02:30:06;;;;;;;22.30;17.60;;;;;;;10.51;81.61;97427.96;87442;1290;24232;-76
2022/09/29 02:33:11;;;;;;;27.90;20.10;;;;;;;10.49;81.41;97425.98;87102;1297;98367;-75
2022/09/29 02:36:21;;;;;;;26.40;18.40;;;;;;;10.49;81.49;97425.48;87263;1297;22850;-76
2022/09/29 02:46:09;;;;;;;23.30;16.80;;;;;;;10.45;81.75;97438.55;87432;1290;98995;-77
2022/09/29 02:49:13;;;;;;;32.80;17.60;;;;;;;10.41;81.67;97440.79;87498;1288;24333;-77
2022/09/29 02:52:21;;;;;;;33.40;19.90;;;;;;;10.38;81.75;97445.86;87894;1287;98189;-76
2022/09/29 02:55:28;;;;;;;32.30;18.30;;;;;;;10.37;81.63;97447.57;87766;1287;22630;-76
2022/09/29 02:58:39;;;;;;;33.40;18.30;;;;;;;10.34;81.55;97446.15;87936;1282;98601;-76
2022/09/29 03:01:34;;;;;;;35.60;18.80;;;;;;;10.31;81.87;97446.35;88352;1282;23009;-77
2022/09/29 03:04:36;;;;;;;25.20;17.80;;;;;;;10.30;81.61;97448.52;88372;1281;99342;-77
2022/09/29 03:07:27;;;;;;;24.90;17.30;;;;;;;10.28;81.62;97451.86;87714;1288;26051;-75
2022/09/29 03:10:29;;;;;;;32.70;18.50;;;;;;;10.24;81.79;97448.41;87900;1284;99685;-75
2022/09/29 03:19:36;;;;;;;28.10;18.10;;;;;;;10.20;82.14;97448.38;87497;1291;26211;-76
2022/09/29 03:22:39;;;;;;;23.90;17.50;;;;;;;10.19;82.13;97443.39;86847;1296;98283;-76
2022/09/29 03:28:45;;;;;;;26.30;17.20;;;;;;;10.16;81.91;97447.42;86955;1297;99563;-74
2022/09/29 03:31:48;;;;;;;26.20;16.30;;;;;;;10.14;81.96;97453.73;87090;1296;22716;-74
2022/09/29 03:34:51;;;;;;;24.70;17.50;;;;;;;10.10;82.09;97446.46;87031;1296;98355;-75
2022/09/29 03:37:46;;;;;;;21.50;17.00;;;;;;;10.11;82.16;97447.80;87328;1296;22603;-76
2022/09/29 03:40:49;;;;;;;27.10;17.70;;;;;;;10.03;82.39;97436.94;87008;1296;99266;-75
2022/09/29 03:50:00;;;;;;;27.50;17.40;;;;;;;10.01;82.13;97436.75;87728;1290;22588;-76
2022/09/29 03:56:05;;;;;;;28.50;17.80;;;;;;;9.90;82.35;97433.14;87238;1291;25525;-76
2022/09/29 03:59:09;;;;;;;36.70;17.70;;;;;;;9.85;82.42;97433.50;87103;1291;97830;-76
2022/09/29 04:02:10;;;;;;;26.50;17.50;;;;;;;9.81;82.44;97435.36;87558;1290;22928;-76
2022/09/29 04:05:13;;;;;;;22.10;16.50;;;;;;;9.79;82.40;97437.41;87488;1290;22697;-76
2022/09/29 04:08:14;;;;;;;25.60;15.90;;;;;;;9.76;82.53;97436.02;87551;1290;22653;-76
2022/09/29 04:11:18;;;;;;;23.90;15.00;;;;;;;9.73;82.39;97431.88;87612;1290;22576;-76
2022/09/29 04:14:20;;;;;;;27.00;16.40;;;;;;;9.65;82.26;97424.30;87807;1290;23725;-77
2022/09/29 04:17:33;;;;;;;;;;;;;;;;;;;;;
2022/09/29 04:26:11;;;;;;;38.70;17.60;;;;;;;9.67;82.67;97461.02;87521;1291;22765;-76
2022/09/29 04:29:14;;;;;;;29.70;17.90;;;;;;;9.69;82.92;97456.66;87573;1290;99284;-75
2022/09/29 04:32:18;;;;;;;32.70;18.20;;;;;;;9.70;82.68;97463.45;88303;1282;22564;-76
2022/09/29 04:35:20;;;;;;;37.40;22.60;;;;;;;9.68;82.67;97466.70;88222;1279;97732;-75
2022/09/29 04:38:11;;;;;;;;;;;;;;;;;;;;;
2022/09/29 04:41:17;;;;;;;35.10;17.40;;;;;;;9.68;82.54;97467.06;88557;1284;97941;-76
2022/09/29 04:50:08;;;;;;;30.70;17.30;;;;;;;9.60;82.80;97461.48;88317;1290;25407;-76
2022/09/29 04:53:13;;;;;;;29.60;17.10;;;;;;;9.61;82.82;97466.34;88052;1291;97755;-77
2022/09/29 04:55:55;;;;;;;;;;;;;;;;;;;;;
2022/09/29 04:58:52;;;;;;;32.90;18.10;;;;;;;9.61;82.81;97477.95;88196;1291;97801;-76
2022/09/29 05:01:17;;;;;;;;;;;;;;;;;;;;;
2022/09/29 05:04:21;;;;;;;26.70;17.10;;;;;;;9.60;82.74;97484.16;88300;1291;98572;-76
2022/09/29 05:07:17;;;;;;;34.20;17.20;;;;;;;9.59;83.06;97489.95;87713;1297;22614;-76
2022/09/29 05:10:09;;;;;;;35.30;18.50;;;;;;;9.59;82.97;97500.38;87767;1295;97994;-76
2022/09/29 05:13:07;;;;;;;32.90;18.50;;;;;;;9.59;83.03;97501.53;88153;1300;22694;-75
2022/09/29 05:16:09;;;;;;;29.80;18.30;;;;;;;9.59;83.16;97498.02;87604;1300;97731;-75
2022/09/29 05:19:15;;;;;;;36.80;17.60;;;;;;;9.60;82.92;97502.73;87685;1298;23536;-75
2022/09/29 05:22:23;;;;;;;31.50;19.80;;;;;;;9.61;83.06;97510.58;87709;1293;97930;-75
2022/09/29 05:24:40;;;;;;;40.10;21.60;;;;;;;9.59;83.04;97519.96;87252;1300;22605;-75
2022/09/29 05:27:41;;;;;;;42.40;22.10;;;;;;;9.57;82.94;97518.02;87241;1302;100470;-76
2022/09/29 05:30:44;;;;;;;32.90;21.20;;;;;;;9.56;83.02;97512.78;87250;1300;22676;-75
2022/09/29 05:33:45;;;;;;;28.60;19.60;;;;;;;9.57;83.05;97517.85;86988;1301;99239;-75
2022/09/29 05:36:48;;;;;;;32.90;19.50;;;;;;;9.56;83.23;97517.53;86960;1302;22761;-75
2022/09/29 05:39:52;;;;;;;32.50;18.20;;;;;;;9.56;83.04;97514.55;86766;1303;98675;-77
2022/09/29 05:42:51;;;;;;;;;;;;;;;;;;;;;
2022/09/29 05:45:53;;;;;;;32.20;17.90;;;;;;;9.56;83.25;97516.65;86370;1309;98933;-74
2022/09/29 05:48:35;;;;;;;30.40;18.30;;;;;;;9.57;83.03;97520.09;86383;1307;25873;-74
2022/09/29 05:51:39;;;;;;;29.70;18.20;;;;;;;9.58;83.27;97519.37;86523;1307;99434;-75
2022/09/29 05:54:40;;;;;;;22.70;16.30;;;;;;;9.56;82.87;97514.58;86157;1312;22750;-74
2022/09/29 06:00:40;;;;;;;29.80;17.70;;;;;;;9.58;83.18;97513.70;85704;1320;24116;-74
2022/09/29 06:03:42;;;;;;;25.80;17.60;;;;;;;9.58;83.27;97511.94;85978;1318;99264;-76
2022/09/29 06:06:41;;;;;;;;;;;;;;;;;;;;;
2022/09/29 06:09:32;;;;;;;25.90;18.20;;;;;;;9.56;83.12;97521.39;85126;1321;98895;-76
2022/09/29 06:12:25;;;;;;;;;;;;;;;;;;;;;
2022/09/29 06:14:35;;;;;;;27.30;18.40;;;;;;;9.53;83.24;97517.60;85410;1321;25465;-73
2022/09/29 06:16:48;;;;;;;28.50;18.70;;;;;;;9.52;83.12;97517.48;85831;1318;22812;-74
2022/09/29 06:19:32;;;;;;;27.70;18.40;;;;;;;9.52;83.31;97517.42;86174;1312;22768;-74
2022/09/29 06:22:33;;;;;;;31.40;19.30;;;;;;;9.52;83.10;97516.39;86151;1309;99156;-74
2022/09/29 06:24:36;;;;;;;31.40;21.20;;;;;;;9.53;83.09;97516.70;86494;1308;24529;-74
2022/09/29 06:27:01;;;;;;;35.60;22.20;;;;;;;9.56;83.22;97516.14;86294;1311;98170;-74
2022/09/29 06:29:14;;;;;;;38.60;21.50;;;;;;;9.60;83.41;97520.10;86669;1306;22644;-74
2022/09/29 06:31:36;;;;;;;31.60;17.40;;;;;;;9.63;83.36;97526.00;86746;1303;22608;-74
2022/09/29 06:33:40;;;;;;;33.60;18.10;;;;;;;9.64;83.32;97527.02;83000;1299;5457401;-73
2022/09/29 06:39:20;;;;;;;;;;;;;;;;;;;;;
2022/09/29 06:41:29;;;;;;;38.70;20.70;;;;;;;9.65;83.14;97521.81;88273;1287;22727;-74
2022/09/29 06:43:59;;;;;;;32.30;19.50;;;;;;;9.66;83.21;97516.68;88242;1287;22731;-74
2022/09/29 06:46:42;;;;;;;;;;;;;;;;;;;;;
2022/09/29 06:49:20;;;;;;;;;;;;;;;;;;;;;
2022/09/29 06:51:43;;;;;;;31.20;18.70;;;;;;;9.66;83.16;97518.41;88822;1277;98354;-74
2022/09/29 06:54:19;;;;;;;30.20;17.90;;;;;;;9.67;83.16;97522.23;89227;1277;23096;-74
2022/09/29 06:56:45;;;;;;;;;;;;;;;;;;;;;
2022/09/29 06:58:47;;;;;;;29.90;15.70;;;;;;;9.68;83.34;97522.52;89307;1278;22567;-73
2022/09/29 07:01:11;;;;;;;29.80;17.50;;;;;;;9.70;83.31;97520.44;89138;1277;22575;-73
2022/09/29 07:03:19;;;;;;;29.00;17.00;;;;;;;9.71;83.20;97524.56;89125;1277;98004;-74
2022/09/29 07:05:23;;;;;;;30.60;17.60;;;;;;;9.69;83.02;97525.20;89008;1281;23362;-74
2022/09/29 07:07:38;;;;;;;34.00;19.20;;;;;;;9.68;82.86;97527.03;89136;1278;22582;-73
2022/09/29 07:09:41;;;;;;;39.80;19.70;;;;;;;9.69;83.05;97525.41;89205;1277;97654;-74
2022/09/29 07:11:46;;;;;;;30.40;18.80;;;;;;;9.73;83.29;97526.22;89080;1281;22609;-73
2022/09/29 07:14:02;;;;;;;26.70;17.60;;;;;;;9.78;83.28;97533.91;89311;1276;23460;-74
2022/09/29 07:16:06;;;;;;;25.70;15.90;;;;;;;9.80;83.51;97533.80;88916;1278;98876;-73
2022/09/29 07:18:18;;;;;;;30.30;16.80;;;;;;;9.80;83.18;97532.78;89179;1278;25403;-73
2022/09/29 07:20:21;;;;;;;22.10;16.30;;;;;;;9.79;83.02;97530.01;89180;1276;22738;-73
2022/09/29 07:22:23;;;;;;;22.80;16.50;;;;;;;9.77;83.16;97526.98;89093;1277;97633;-74
2022/09/29 07:24:25;;;;;;;37.50;17.00;;;;;;;9.80;83.17;97530.85;89198;1278;22603;-73
2022/09/29 07:26:33;;;;;;;28.70;16.20;;;;;;;9.81;83.12;97531.08;89030;1281;23195;-73
2022/09/29 07:28:38;;;;;;;30.00;16.80;;;;;;;9.86;83.24;97534.14;89217;1277;97476;-73
2022/09/29 07:30:43;;;;;;;32.80;17.10;;;;;;;9.87;83.21;97535.45;89215;1277;23090;-74
2022/09/29 07:32:49;;;;;;;30.00;16.40;;;;;;;9.87;83.12;97540.36;88934;1279;98935;-73
2022/09/29 07:34:59;;;;;;;29.40;14.90;;;;;;;9.86;83.07;97544.07;89127;1276;22635;-74
2022/09/29 07:37:01;;;;;;;25.80;14.20;;;;;;;9.84;83.21;97544.79;88845;1276;25269;-74
2022/09/29 07:39:11;;;;;;;22.60;14.00;;;;;;;9.80;83.01;97544.66;88986;1277;97797;-73
2022/09/29 07:41:14;;;;;;;21.80;14.50;;;;;;;9.77;83.01;97539.30;89125;1277;22548;-74
2022/09/29 07:43:16;;;;;;;29.10;15.70;;;;;;;9.79;83.16;97545.98;89133;1276;22612;-74
2022/09/29 07:45:49;;;;;;;28.20;16.40;;;;;;;9.79;83.14;97549.52;88862;1278;97714;-74
2022/09/29 07:48:11;;;;;;;29.70;15.60;;;;;;;9.77;83.08;97551.73;89301;1276;22554;-74
2022/09/29 07:50:13;;;;;;;22.50;14.60;;;;;;;9.78;83.31;97557.48;89135;1278;22816;-73
2022/09/29 07:52:49;;;;;;;40.10;18.00;;;;;;;9.77;83.27;97560.17;89327;1278;99044;-75
2022/09/29 07:55:11;;;;;;;30.60;16.50;;;;;;;9.75;83.04;97565.55;89368;1276;22578;-74
2022/09/29 07:58:20;;;;;;;30.40;17.90;;;;;;;9.73;83.11;97567.42;89018;1277;97929;-74
2022/09/29 08:00:24;;;;;;;33.00;16.40;;;;;;;9.74;83.20;97576.17;88177;1290;22589;-74
2022/09/29 08:03:29;;;;;;;27.70;18.30;;;;;;;9.76;83.49;97575.14;87690;1291;23726;-73
2022/09/29 08:06:32;;;;;;;31.80;17.90;;;;;;;9.84;83.42;97574.78;87958;1288;24741;-74
2022/09/29 08:08:36;;;;;;;23.90;15.60;;;;;;;9.93;83.60;97576.61;87502;1297;24306;-74
2022/09/29 08:10:38;;;;;;;25.10;14.30;;;;;;;9.96;83.57;97572.52;87598;1294;99418;-74
2022/09/29 08:12:59;;;;;;;;;;;;;;;;;;;;;
2022/09/29 08:15:16;;;;;;;20.90;13.70;;;;;;;10.03;83.47;97571.91;87333;1297;99036;-74
2022/09/29 08:17:48;;;;;;;;;;;;;;;;;;;;;
2022/09/29 08:19:51;;;;;;;21.50;12.90;;;;;;;10.09;83.47;97580.30;87451;1297;22850;-74
2022/09/29 08:21:53;;;;;;;17.20;11.80;;;;;;;10.10;83.46;97583.36;87370;1296;98395;-74
2022/09/29 08:24:28;;;;;;;22.30;12.30;;;;;;;10.12;83.35;97587.23;87519;1297;25484;-75
2022/09/29 08:27:09;;;;;;;18.60;11.90;;;;;;;10.12;83.29;97589.20;87340;1294;22888;-74
2022/09/29 08:29:24;;;;;;;17.90;11.90;;;;;;;10.15;83.31;97589.90;87275;1297;26660;-74
2022/09/29 08:31:26;;;;;;;14.00;12.20;;;;;;;10.18;83.33;97587.91;87301;1294;23085;-74
2022/09/29 08:34:30;;;;;;;22.60;10.90;;;;;;;10.21;83.36;97591.70;87166;1297;100168;-74
2022/09/29 08:36:31;;;;;;;15.90;10.60;;;;;;;10.23;83.16;97592.64;86983;1300;22574;-74
2022/09/29 08:39:15;;;;;;;12.10;10.50;;;;;;;10.26;83.26;97596.79;87564;1291;22547;-74
2022/09/29 08:41:53;;;;;;;18.30;11.70;;;;;;;10.31;83.34;97600.84;87682;1294;22596;-74
2022/09/29 08:44:25;;;;;;;15.30;12.10;;;;;;;10.36;83.59;97600.53;87943;1290;23369;-73
2022/09/29 08:46:30;;;;;;;;;;;;;;;10.44;83.64;97604.80;87981;1285;97985;-74
2022/09/29 08:48:37;;;;;;;13.00;10.90;;;;;;;10.47;83.54;97610.85;88902;1284;23005;-74
2022/09/29 08:50:49;;;;;;;13.50;10.40;;;;;;;10.53;83.73;97615.38;88780;1283;24258;-74
2022/09/29 08:52:56;;;;;;;16.30;9.70;;;;;;;10.55;83.52;97616.29;88244;1285;22555;-73
2022/09/29 08:55:12;;;;;;;11.10;10.00;;;;;;;10.59;83.70;97614.59;88463;1287;23918;-74
2022/09/29 08:57:19;;;;;;;16.30;9.60;;;;;;;10.64;83.70;97616.87;88322;1284;99044;-74
2022/09/29 08:59:24;;;;;;;19.60;10.20;;;;;;;10.68;83.69;97619.04;88430;1284;24164;-74
2022/09/29 09:01:38;;;;;;;15.10;9.40;;;;;;;10.75;83.41;97619.66;88284;1287;25410;-74
2022/09/29 09:04:18;;;;;;;11.90;10.00;;;;;;;10.81;83.33;97619.04;88390;1283;99108;-74
2022/09/29 09:06:40;;;;;;;12.70;8.40;;;;;;;10.87;83.43;97622.52;87584;1290;22763;-75
2022/09/29 09:09:08;;;;;;;7.30;6.20;;;;;;;10.87;83.42;97621.41;87508;1290;22604;-74
2022/09/29 09:12:06;;;;;;;10.10;6.90;;;;;;;10.90;82.86;97619.79;87460;1290;26628;-74
2022/09/29 09:14:50;;;;;;;;;;;;;;;;;;;;;
2022/09/29 09:18:11;;;;;;;8.90;6.20;;;;;;;10.99;82.86;97617.05;87023;1294;22882;-74
2022/09/29 09:20:50;;;;;;;20.70;9.70;;;;;;;11.08;82.95;97617.45;86708;1302;22835;-74
2022/09/29 09:23:15;;;;;;;11.40;10.00;;;;;;;11.12;83.05;97613.16;86498;1306;22625;-75
2022/09/29 09:25:40;;;;;;;13.70;7.40;;;;;;;11.17;83.08;97614.20;86417;1306;22669;-74
2022/09/29 09:28:10;;;;;;;8.00;6.40;;;;;;;11.19;82.96;97618.65;86671;1306;98254;-75
2022/09/29 09:30:19;;;;;;;6.40;5.40;;;;;;;11.19;82.65;97614.19;86535;1306;25328;-75
2022/09/29 09:32:27;;;;;;;5.60;5.00;;;;;;;11.23;82.63;97614.11;86543;1307;23478;-75
2022/09/29 09:35:08;;;;;;;8.90;7.30;;;;;;;11.23;82.34;97610.77;86505;1308;99222;-76
2022/09/29 09:37:34;;;;;;;14.80;6.50;;;;;;;11.22;82.35;97611.33;86095;1316;23665;-74
2022/09/29 09:40:13;;;;;;;8.90;6.70;;;;;;;11.23;82.16;97615.36;86053;1314;99300;-75
2022/09/29 09:42:29;;;;;;;8.80;6.10;;;;;;;11.24;82.21;97617.69;86182;1314;22661;-74
2022/09/29 09:44:47;;;;;;;4.90;3.60;;;;;;;11.25;81.97;97618.17;86451;1314;23389;-75
2022/09/29 09:47:26;;;;;;;7.50;4.20;;;;;;;11.20;81.76;97627.13;86477;1314;22841;-75
2022/09/29 09:49:50;;;;;;;5.20;4.40;;;;;;;11.18;81.71;97628.68;86350;1312;22758;-75
2022/09/29 09:52:44;;;;;;;4.60;4.20;;;;;;;11.20;81.75;97622.94;87082;1299;97724;-76
2022/09/29 09:55:02;;;;;;;5.50;5.00;;;;;;;11.25;81.78;97623.78;87233;1299;22628;-75
2022/09/29 09:57:46;;;;;;;6.50;5.60;;;;;;;11.31;81.88;97628.30;87347;1299;98910;-75
2022/09/29 10:00:15;;;;;;;6.20;5.20;;;;;;;11.35;81.92;97630.80;87301;1297;22540;-74
2022/09/29 10:02:20;;;;;;;11.70;6.30;;;;;;;11.36;81.80;97636.39;87757;1296;22585;-73
2022/09/29 10:04:24;;;;;;;6.20;5.60;;;;;;;11.37;81.58;97638.26;87325;1297;97833;-74
2022/09/29 10:06:28;;;;;;;6.00;5.50;;;;;;;11.37;81.60;97635.77;87454;1296;22638;-74
2022/09/29 10:08:38;;;;;;;5.70;5.20;;;;;;;11.38;81.80;97633.89;87433;1297;22604;-74
2022/09/29 10:10:42;;;;;;;6.70;5.70;;;;;;;11.38;81.56;97631.48;87538;1296;97614;-74
2022/09/29 10:12:44;;;;;;;7.00;5.40;;;;;;;11.36;81.58;97631.40;88289;1288;23068;-73
2022/09/29 10:15:04;;;;;;;6.00;5.00;;;;;;;11.36;81.59;97632.30;87914;1288;22634;-73
2022/09/29 10:17:11;;;;;;;5.80;5.20;;;;;;;11.40;81.59;97634.83;88168;1287;25327;-73
2022/09/29 10:19:13;;;;;;;8.20;5.60;;;;;;;11.40;81.46;97636.89;88248;1287;24246;-74
2022/09/29 10:21:48;;;;;;;5.10;4.50;;;;;;;11.39;81.60;97630.68;88077;1288;97720;-73
2022/09/29 10:23:53;;;;;;;6.10;4.80;;;;;;;11.46;81.46;97645.35;87809;1292;22652;-74
2022/09/29 10:26:00;;;;;;;8.90;4.60;;;;;;;11.48;81.59;97644.84;87481;1294;22663;-74
2022/09/29 10:28:03;;;;;;;4.70;4.30;;;;;;;11.50;81.31;97643.27;87462;1293;98648;-74
2022/09/29 10:30:33;;;;;;;10.80;4.20;;;;;;;11.52;81.49;97644.14;87435;1292;22936;-74
2022/09/29 10:33:34;;;;;;;;;;;;;;;;;;;;;
2022/09/29 10:36:44;;;;;;;10.40;4.50;;;;;;;11.50;81.15;97646.98;88212;1282;23582;-74
2022/09/29 10:39:35;;;;;;;12.70;4.80;;;;;;;11.49;81.09;97650.23;87204;1293;22627;-74
2022/09/29 10:42:21;;;;;;;17.80;6.10;;;;;;;11.50;81.61;97652.79;87549;1294;22803;-75
2022/09/29 10:44:38;;;;;;;22.90;5.40;;;;;;;11.49;81.23;97649.67;87315;1294;25703;-74
2022/09/29 10:47:49;;;;;;;11.60;4.90;;;;;;;11.49;81.16;97649.32;87313;1293;98916;-74
2022/09/29 10:50:53;;;;;;;7.30;5.30;;;;;;;11.52;81.57;97651.23;87377;1293;22605;-74
2022/09/29 10:56:26;;;;;;;9.50;4.90;;;;;;;11.60;81.16;97645.01;87373;1306;543101;-78
2022/09/29 10:59:02;;;;;;;7.60;5.20;;;;;;;11.58;81.09;97649.38;89254;1281;97072;-76
2022/09/29 11:01:09;;;;;;;5.20;4.50;;;;;;;11.59;81.14;97651.52;89146;1286;25230;-77
2022/09/29 11:03:27;;;;;;;4.00;3.70;;;;;;;11.59;81.09;97656.67;89331;1283;97504;-75
2022/09/29 11:05:30;;;;;;;5.10;4.10;;;;;;;11.60;81.19;97657.98;89339;1286;25409;-76
2022/09/29 11:07:33;;;;;;;5.70;4.50;;;;;;;11.62;81.26;97663.14;88951;1287;22624;-77
2022/09/29 11:09:43;;;;;;;5.80;3.60;;;;;;;11.65;81.20;97666.45;89050;1284;215820;-77
2022/09/29 11:11:57;;;;;;;5.60;4.40;;;;;;;11.66;81.19;97668.48;89706;1281;22594;-77
2022/09/29 11:13:59;;;;;;;10.00;4.10;;;;;;;11.68;80.98;97672.05;89804;1281;22579;-76
2022/09/29 11:16:28;;;;;;;5.80;4.40;;;;;;;11.67;80.99;97674.73;89285;1281;97906;-77
2022/09/29 11:18:40;;;;;;;12.60;4.40;;;;;;;11.65;80.77;97675.24;89594;1281;22550;-76
2022/09/29 11:20:44;;;;;;;4.50;4.20;;;;;;;11.63;80.73;97675.38;89615;1281;22559;-77
2022/09/29 11:23:20;;;;;;;5.40;3.90;;;;;;;11.63;80.79;97674.89;89215;1281;97323;-77
2022/09/29 11:25:43;;;;;;;4.00;3.30;;;;;;;11.63;80.89;97672.91;89545;1281;22908;-77
2022/09/29 11:28:02;;;;;;;7.10;3.80;;;;;;;11.64;80.80;97671.95;89456;1281;97328;-76
2022/09/29 11:30:16;;;;;;;7.80;3.50;;;;;;;11.65;80.60;97666.44;89811;1281;22576;-76
2022/09/29 11:32:39;;;;;;;4.60;3.00;;;;;;;11.68;80.70;97668.35;89964;1271;22572;-76
2022/09/29 11:35:06;;;;;;;2.90;2.50;;;;;;;11.69;80.70;97664.21;89818;1271;98966;-77
2022/09/29 11:37:33;;;;;;;7.20;3.10;;;;;;;11.79;80.58;97666.45;89899;1271;22544;-78
2022/09/29 11:40:12;;;;;;;5.90;2.70;;;;;;;11.87;80.67;97665.36;90040;1274;97342;-78
2022/09/29 11:42:30;;;;;;;5.70;3.70;;;;;;;11.95;80.50;97665.48;90119;1271;22890;-76
2022/09/29 11:44:31;;;;;;;3.10;2.80;;;;;;;12.00;80.20;97666.84;89617;1273;22581;-79
2022/09/29 11:46:44;;;;;;;14.10;4.00;;;;;;;12.02;80.03;97669.54;89574;1271;97130;-77
2022/09/29 11:49:05;;;;;;;8.30;3.90;;;;;;;12.02;79.69;97671.42;90171;1271;22646;-76
2022/09/29 11:51:16;;;;;;;6.60;5.00;;;;;;;11.99;79.67;97668.37;89510;1271;98370;-76
2022/09/29 11:53:53;;;;;;;13.70;4.10;;;;;;;11.99;79.84;97667.66;89860;1271;22662;-76
2022/09/29 11:56:39;;;;;;;6.30;4.80;;;;;;;12.00;79.72;97668.46;89498;1271;22561;-76
2022/09/29 11:59:09;;;;;;;16.00;4.50;;;;;;;12.03;79.82;97667.34;89007;1277;98500;-77
2022/09/29 12:01:30;;;;;;;11.90;4.60;;;;;;;12.07;79.76;97669.50;89030;1280;22577;-77
2022/09/29 12:03:35;;;;;;;;;;;;;;;12.09;79.61;97670.73;89098;1280;97692;-77
2022/09/29 12:06:02;;;;;;;5.00;3.40;;;;;;;12.09;79.75;97669.37;88873;1280;22590;-76
2022/09/29 12:08:22;;;;;;;11.10;4.20;;;;;;;12.10;79.80;97663.86;88767;1280;22602;-79
2022/09/29 12:10:36;;;;;;;6.20;4.60;;;;;;;12.13;79.69;97666.80;88635;1279;97987;-77
2022/09/29 12:12:59;;;;;;;14.10;5.00;;;;;;;12.14;79.38;97669.75;88894;1279;22533;-78
2022/09/29 12:15:13;;;;;;;7.10;4.40;;;;;;;12.13;79.30;97672.59;89330;1279;97550;-79
2022/09/29 12:17:20;;;;;;;7.40;4.00;;;;;;;12.10;79.25;97675.65;89498;1279;22580;-78
2022/09/29 12:19:27;;;;;;;9.80;4.90;;;;;;;12.08;79.30;97673.63;89205;1279;22555;-77
2022/09/29 12:21:41;;;;;;;7.70;4.60;;;;;;;12.06;79.26;97679.61;88947;1281;97575;-78
2022/09/29 12:23:47;;;;;;;10.40;4.90;;;;;;;12.04;79.26;97678.35;88759;1281;22517;-78
2022/09/29 12:26:15;;;;;;;5.00;4.50;;;;;;;12.01;79.14;97672.79;89107;1277;22881;-78
2022/09/29 12:28:22;;;;;;;12.80;4.70;;;;;;;12.00;79.25;97670.02;89008;1274;97441;-79
2022/09/29 12:30:33;;;;;;;138.50;16.10;;;;;;;12.01;79.32;97667.89;89520;1281;23514;-79
2022/09/29 12:32:50;;;;;;;14.30;6.10;;;;;;;12.02;79.23;97675.70;89582;1278;22630;-79
2022/09/29 12:35:01;;;;;;;11.00;5.60;;;;;;;12.03;79.23;97679.27;89733;1271;98452;-79
2022/09/29 12:37:27;;;;;;;8.80;5.40;;;;;;;12.04;79.39;97688.02;89618;1273;22616;-78
2022/09/29 12:39:50;;;;;;;14.50;5.90;;;;;;;12.06;79.18;97689.85;89795;1271;98508;-80
2022/09/29 12:42:02;;;;;;;12.80;6.40;;;;;;;12.05;79.20;97693.61;90086;1270;22569;-79
2022/09/29 12:44:31;;;;;;;17.30;6.40;;;;;;;12.05;79.20;97695.52;90029;1273;22603;-79
2022/09/29 12:46:44;;;;;;;9.70;7.00;;;;;;;12.06;79.20;97698.50;89737;1272;97564;-79